createdAt,value
2019-03-01T00:01:22.488Z,99405.31
2019-03-01T00:04:02.904Z,99406.83
2019-03-01T00:06:41.356Z,99404.25
2019-03-01T00:09:29.790Z,99406.60
2019-03-01T00:12:10.520Z,99409.24
2019-03-01T00:15:00.310Z,99404.84
2019-03-01T00:17:42.477Z,99408.55
2019-03-01T00:20:35.721Z,99417.12
2019-03-01T00:23:31.186Z,99400.58
2019-03-01T00:26:15.034Z,99397.73
2019-03-01T00:29:10.961Z,99397.53
2019-03-01T00:31:43.246Z,99398.63
2019-03-01T00:34:30.040Z,99397.33
2019-03-01T00:37:10.827Z,99401.94
2019-03-01T00:40:00.770Z,99400.61
2019-03-01T00:42:52.787Z,99394.52
2019-03-01T00:45:20.133Z,99392.62
2019-03-01T00:47:46.813Z,99395.59
2019-03-01T00:50:13.192Z,99390.34
2019-03-01T00:52:39.544Z,99388.30
2019-03-01T00:55:07.404Z,99392.44
2019-03-01T00:57:33.757Z,99380.95
2019-03-01T01:00:00.049Z,99384.17
2019-03-01T01:02:26.653Z,99382.13
2019-03-01T01:04:53.242Z,99378.00
2019-03-01T01:07:20.020Z,99373.56
2019-03-01T01:09:46.366Z,99366.33
2019-03-01T01:12:12.710Z,99370.98
2019-03-01T01:14:39.004Z,99371.09
2019-03-01T01:17:05.362Z,99369.88
2019-03-01T01:19:31.659Z,99372.75
2019-03-01T01:21:58.159Z,99369.50
2019-03-01T01:24:24.459Z,99360.50
2019-03-01T01:26:50.763Z,99356.23
2019-03-01T01:29:17.073Z,99358.73
2019-03-01T01:31:43.380Z,99361.67
2019-03-01T01:34:09.974Z,99357.73
2019-03-01T01:36:36.327Z,99358.45
2019-03-01T01:39:06.120Z,99359.03
2019-03-01T01:41:33.271Z,99356.20
2019-03-01T01:43:59.835Z,99349.36
2019-03-01T01:46:26.277Z,99351.50
2019-03-01T01:48:52.582Z,99339.95
2019-03-01T01:51:19.234Z,99341.98
2019-03-01T01:53:46.522Z,99342.82
2019-03-01T01:56:12.854Z,99338.58
2019-03-01T01:58:39.196Z,99342.01
2019-03-01T02:01:05.535Z,99332.96
2019-03-01T02:03:31.841Z,99332.33
2019-03-01T02:05:58.607Z,99325.00
2019-03-01T02:08:24.931Z,99317.92
2019-03-01T02:10:51.834Z,99315.45
2019-03-01T02:13:18.128Z,99307.25
2019-03-01T02:15:44.432Z,99307.02
2019-03-01T02:18:11.038Z,99299.92
2019-03-01T02:20:37.352Z,99301.20
2019-03-01T02:23:03.685Z,99299.59
2019-03-01T02:25:30.289Z,99294.13
2019-03-01T02:27:57.108Z,99293.93
2019-03-01T02:30:34.258Z,99296.97
2019-03-01T02:33:00.564Z,99287.72
2019-03-01T02:35:26.882Z,99292.56
2019-03-01T02:37:53.254Z,99288.38
2019-03-01T02:40:19.842Z,99289.01
2019-03-01T02:42:46.164Z,99287.50
2019-03-01T02:45:17.840Z,99287.98
2019-03-01T02:47:44.209Z,99281.83
2019-03-01T02:50:14.699Z,99277.78
2019-03-01T02:52:41.027Z,99274.61
2019-03-01T02:55:14.114Z,99271.41
2019-03-01T02:57:40.522Z,99272.71
2019-03-01T03:00:15.695Z,99269.49
2019-03-01T03:02:42.001Z,99267.53
2019-03-01T03:05:08.526Z,99272.02
2019-03-01T03:07:36.854Z,99264.86
2019-03-01T03:10:06.070Z,99267.55
2019-03-01T03:12:32.645Z,99268.31
2019-03-01T03:14:58.981Z,99263.52
2019-03-01T03:17:25.605Z,99266.45
2019-03-01T03:19:51.943Z,99272.55
2019-03-01T03:22:18.303Z,99268.91
2019-03-01T03:24:44.629Z,99269.92
2019-03-01T03:27:11.222Z,99267.70
2019-03-01T03:29:37.557Z,99278.79
2019-03-01T03:32:03.875Z,99268.05
2019-03-01T03:34:31.253Z,99271.06
2019-03-01T03:36:57.860Z,99264.03
2019-03-01T03:39:24.234Z,99257.38
2019-03-01T03:41:50.553Z,99263.68
2019-03-01T03:44:16.886Z,99261.02
2019-03-01T03:46:43.252Z,99258.62
2019-03-01T03:49:09.834Z,99259.70
2019-03-01T03:51:36.231Z,99263.36
2019-03-01T03:54:02.726Z,99253.72
2019-03-01T03:56:29.062Z,99252.91
2019-03-01T03:58:55.511Z,99255.66
2019-03-01T04:01:22.111Z,99251.57
2019-03-01T04:03:48.466Z,99250.94
2019-03-01T04:06:14.795Z,99252.81
2019-03-01T04:08:41.125Z,99249.73
2019-03-01T04:11:07.433Z,99248.05
2019-03-01T04:13:34.044Z,99247.22
2019-03-01T04:16:00.354Z,99241.81
2019-03-01T04:18:26.697Z,99242.05
2019-03-01T04:20:53.068Z,99243.00
2019-03-01T04:23:19.423Z,99239.87
2019-03-01T04:25:45.726Z,99235.65
2019-03-01T04:28:12.051Z,99231.41
2019-03-01T04:30:38.465Z,99230.93
2019-03-01T04:33:04.837Z,99232.24
2019-03-01T04:35:31.418Z,99225.11
2019-03-01T04:37:57.729Z,99224.33
2019-03-01T04:40:24.073Z,99216.69
2019-03-01T04:42:51.578Z,99219.23
2019-03-01T04:45:18.026Z,99217.47
2019-03-01T04:47:47.295Z,99218.73
2019-03-01T04:50:13.954Z,99218.53
2019-03-01T04:52:40.364Z,99212.28
2019-03-01T04:55:14.470Z,99218.43
2019-03-01T04:57:40.782Z,99218.98
2019-03-01T05:00:17.855Z,99220.31
2019-03-01T05:02:44.448Z,99220.14
2019-03-01T05:05:13.950Z,99215.08
2019-03-01T05:07:40.254Z,99210.19
2019-03-01T05:10:10.862Z,99213.12
2019-03-01T05:12:37.456Z,99126.42
2019-03-01T05:15:09.558Z,99203.20
2019-03-01T05:17:35.891Z,99211.80
2019-03-01T05:20:02.927Z,99210.77
2019-03-01T05:22:29.515Z,99179.44
2019-03-01T05:24:55.855Z,99204.11
2019-03-01T05:27:22.432Z,99203.28
2019-03-01T05:29:48.783Z,99203.28
2019-03-01T05:32:15.070Z,99197.09
2019-03-01T05:34:41.667Z,99207.89
2019-03-01T05:37:07.980Z,99204.00
2019-03-01T05:39:34.568Z,99198.24
2019-03-01T05:42:00.890Z,99199.00
2019-03-01T05:44:27.464Z,99194.72
2019-03-01T05:46:54.174Z,99193.48
2019-03-01T05:49:21.500Z,99189.01
2019-03-01T05:51:47.989Z,99194.56
2019-03-01T05:54:14.268Z,99195.03
2019-03-01T05:56:40.830Z,99194.20
2019-03-01T05:59:17.039Z,99193.80
2019-03-01T06:02:15.306Z,99194.91
2019-03-01T06:04:52.927Z,99199.98
2019-03-01T06:07:51.988Z,99205.66
2019-03-01T06:10:26.972Z,99200.45
2019-03-01T06:13:27.331Z,99193.73
2019-03-01T06:16:19.892Z,99195.63
2019-03-01T06:19:12.571Z,99191.30
2019-03-01T06:22:27.099Z,99193.33
2019-03-01T06:25:20.353Z,99195.08
2019-03-01T06:28:23.676Z,99189.52
2019-03-01T06:31:19.446Z,99199.16
2019-03-01T06:34:08.145Z,99192.37
2019-03-01T06:36:57.070Z,99199.52
2019-03-01T06:39:45.879Z,99192.09
2019-03-01T06:42:51.284Z,99204.40
2019-03-01T06:45:37.799Z,99202.73
2019-03-01T06:48:04.150Z,99202.17
2019-03-01T06:50:32.372Z,99201.67
2019-03-01T06:52:58.980Z,99202.05
2019-03-01T06:55:35.889Z,99203.44
2019-03-01T06:58:04.442Z,99199.38
2019-03-01T07:00:32.640Z,99201.87
2019-03-01T07:03:00.289Z,99202.48
2019-03-01T07:05:26.854Z,99193.33
2019-03-01T07:07:53.198Z,99196.81
2019-03-01T07:10:19.774Z,99201.97
2019-03-01T07:12:46.072Z,99203.02
2019-03-01T07:15:12.395Z,99195.91
2019-03-01T07:17:38.714Z,99201.32
2019-03-01T07:20:08.660Z,99190.43
2019-03-01T07:22:35.218Z,99199.75
2019-03-01T07:25:02.183Z,99193.33
2019-03-01T07:27:28.495Z,99177.78
2019-03-01T07:29:56.003Z,99188.34
2019-03-01T07:32:22.606Z,99183.93
2019-03-01T07:34:49.159Z,99187.79
2019-03-01T07:37:15.801Z,99188.94
2019-03-01T07:39:42.376Z,99186.27
2019-03-01T07:42:08.699Z,99190.92
2019-03-01T07:44:35.018Z,99198.13
2019-03-01T07:47:01.600Z,99190.50
2019-03-01T07:49:28.340Z,99201.11
2019-03-01T07:51:54.675Z,99203.01
2019-03-01T07:54:22.335Z,99203.91
2019-03-01T07:56:48.825Z,99206.35
2019-03-01T07:59:15.445Z,99208.48
2019-03-01T08:01:41.794Z,99203.64
2019-03-01T08:04:08.429Z,99205.88
2019-03-01T08:06:34.775Z,99209.44
2019-03-01T08:09:01.143Z,99213.06
2019-03-01T08:11:28.547Z,99212.53
2019-03-01T08:13:56.109Z,99209.05
2019-03-01T08:16:22.400Z,99201.36
2019-03-01T08:18:50.028Z,99200.93
2019-03-01T08:21:16.394Z,99192.25
2019-03-01T08:23:43.050Z,99201.11
2019-03-01T08:26:09.634Z,99205.14
2019-03-01T08:28:36.284Z,99206.22
2019-03-01T08:31:02.682Z,99203.24
2019-03-01T08:33:29.271Z,99199.30
2019-03-01T08:35:56.873Z,99202.02
2019-03-01T08:38:25.512Z,99199.56
2019-03-01T08:40:54.468Z,99203.71
2019-03-01T08:43:20.896Z,99211.23
2019-03-01T08:45:47.458Z,99208.71
2019-03-01T08:48:14.062Z,99207.93
2019-03-01T08:50:40.379Z,99198.89
2019-03-01T08:53:06.686Z,99204.61
2019-03-01T08:55:35.650Z,99213.99
2019-03-01T08:58:04.651Z,99205.80
2019-03-01T09:00:38.168Z,99198.54
2019-03-01T09:03:22.362Z,99200.28
2019-03-01T09:05:47.611Z,99197.98
2019-03-01T09:08:14.198Z,99204.55
2019-03-01T09:10:40.874Z,99199.02
2019-03-01T09:13:07.170Z,99202.05
2019-03-01T09:15:33.522Z,99203.23
2019-03-01T09:18:00.110Z,99206.19
2019-03-01T09:20:26.478Z,99200.02
2019-03-01T09:22:53.024Z,99204.61
2019-03-01T09:25:19.371Z,99206.39
2019-03-01T09:27:45.708Z,99207.55
2019-03-01T09:30:16.309Z,99199.80
2019-03-01T09:32:43.910Z,99201.27
2019-03-01T09:35:16.057Z,99196.86
2019-03-01T09:37:42.647Z,99191.73
2019-03-01T09:40:09.320Z,99208.94
2019-03-01T09:42:36.007Z,99197.70
2019-03-01T09:45:05.763Z,99190.55
2019-03-01T09:47:33.511Z,99191.63
2019-03-01T09:50:01.203Z,99199.77
2019-03-01T09:52:27.888Z,99192.30
2019-03-01T09:54:54.218Z,99191.73
2019-03-01T09:57:21.817Z,99192.37
2019-03-01T09:59:48.118Z,99192.02
2019-03-01T10:02:14.734Z,99191.91
2019-03-01T10:04:41.876Z,99190.94
2019-03-01T10:07:08.309Z,99195.24
2019-03-01T10:09:34.617Z,99196.00
2019-03-01T10:12:01.350Z,99187.78
2019-03-01T10:14:27.662Z,99177.06
2019-03-01T10:16:55.001Z,99185.38
2019-03-01T10:19:21.309Z,99186.31
2019-03-01T10:21:47.661Z,99194.73
2019-03-01T10:24:13.979Z,99196.69
2019-03-01T10:26:40.326Z,99195.27
2019-03-01T10:29:06.920Z,99196.20
2019-03-01T10:31:33.229Z,99199.92
2019-03-01T10:33:59.799Z,99205.30
2019-03-01T10:36:26.425Z,99198.83
2019-03-01T10:38:52.758Z,99195.77
2019-03-01T10:41:19.348Z,99206.83
2019-03-01T10:43:45.930Z,99202.61
2019-03-01T10:46:12.269Z,99191.09
2019-03-01T10:48:38.653Z,99187.91
2019-03-01T10:51:05.255Z,99201.84
2019-03-01T10:53:31.568Z,99207.47
2019-03-01T10:55:58.134Z,99197.28
2019-03-01T10:58:24.737Z,99193.97
2019-03-01T11:00:51.020Z,99184.98
2019-03-01T11:03:18.471Z,99187.92
2019-03-01T11:05:44.771Z,99196.16
2019-03-01T11:08:11.342Z,99196.56
2019-03-01T11:10:39.687Z,99200.69
2019-03-01T11:13:17.688Z,99201.83
2019-03-01T11:15:44.273Z,99188.00
2019-03-01T11:18:10.593Z,99196.02
2019-03-01T11:20:36.900Z,99199.93
2019-03-01T11:23:03.213Z,99194.56
2019-03-01T11:25:29.830Z,99198.69
2019-03-01T11:27:56.150Z,99205.59
2019-03-01T11:30:34.491Z,99196.02
2019-03-01T11:33:01.073Z,99201.34
2019-03-01T11:35:27.933Z,99205.32
2019-03-01T11:37:55.937Z,99197.44
2019-03-01T11:40:33.591Z,99198.15
2019-03-01T11:43:00.139Z,99192.25
2019-03-01T11:45:26.429Z,99192.06
2019-03-01T11:47:53.173Z,99193.30
2019-03-01T11:50:23.466Z,99183.61
2019-03-01T11:52:51.177Z,99189.60
2019-03-01T11:55:17.613Z,99188.72
2019-03-01T11:57:44.164Z,99190.23
2019-03-01T12:00:16.258Z,99189.69
2019-03-01T12:02:43.351Z,99183.55
2019-03-01T12:05:11.032Z,99180.74
2019-03-01T12:07:37.371Z,99181.27
2019-03-01T12:10:12.373Z,99185.00
2019-03-01T12:12:38.910Z,99184.61
2019-03-01T12:15:08.025Z,99179.98
2019-03-01T12:17:34.442Z,99180.44
2019-03-01T12:20:01.013Z,99182.92
2019-03-01T12:22:27.621Z,99169.20
2019-03-01T12:24:54.227Z,99172.70
2019-03-01T12:27:21.043Z,99178.16
2019-03-01T12:29:47.716Z,99176.75
2019-03-01T12:32:14.314Z,99171.71
2019-03-01T12:34:40.906Z,99174.00
2019-03-01T12:37:07.499Z,99172.30
2019-03-01T12:39:33.842Z,99170.94
2019-03-01T12:42:00.143Z,99186.81
2019-03-01T12:44:26.773Z,99181.20
2019-03-01T12:46:53.073Z,99185.00
2019-03-01T12:49:19.685Z,99170.36
2019-03-01T12:51:46.258Z,99173.76
2019-03-01T12:54:12.627Z,99175.41
2019-03-01T12:56:39.245Z,99176.13
2019-03-01T12:59:05.599Z,99170.73
2019-03-01T13:01:31.946Z,99171.73
2019-03-01T13:03:58.300Z,99169.31
2019-03-01T13:06:24.898Z,99171.25
2019-03-01T13:08:52.328Z,99189.00
2019-03-01T13:11:19.030Z,99185.56
2019-03-01T13:13:46.377Z,99171.77
2019-03-01T13:16:12.725Z,99173.48
2019-03-01T13:18:39.322Z,99170.45
2019-03-01T13:21:05.617Z,99169.54
2019-03-01T13:23:32.994Z,99180.52
2019-03-01T13:26:02.906Z,99196.91
2019-03-01T13:28:28.886Z,99214.44
2019-03-01T13:30:55.513Z,99216.09
2019-03-01T13:33:22.968Z,99209.89
2019-03-01T13:35:49.610Z,99197.67
2019-03-01T13:38:16.191Z,99203.88
2019-03-01T13:40:43.510Z,99200.06
2019-03-01T13:43:10.149Z,99199.42
2019-03-01T13:45:36.500Z,99197.70
2019-03-01T13:48:03.380Z,99210.66
2019-03-01T13:50:29.867Z,99205.25
2019-03-01T13:52:56.297Z,99204.32
2019-03-01T13:55:23.785Z,99213.19
2019-03-01T13:57:51.371Z,99213.28
2019-03-01T14:00:19.750Z,99213.29
2019-03-01T14:02:46.844Z,99227.34
2019-03-01T14:05:17.051Z,99223.98
2019-03-01T14:07:44.129Z,99224.23
2019-03-01T14:10:14.647Z,99230.70
2019-03-01T14:12:41.245Z,99231.67
2019-03-01T14:15:11.277Z,99231.96
2019-03-01T14:17:37.867Z,99234.16
2019-03-01T14:20:11.734Z,99229.43
2019-03-01T14:22:38.089Z,99235.96
2019-03-01T14:25:08.196Z,99238.58
2019-03-01T14:27:34.529Z,99243.72
2019-03-01T14:30:01.168Z,99241.22
2019-03-01T14:32:27.741Z,99245.11
2019-03-01T14:34:54.315Z,99243.23
2019-03-01T14:37:20.617Z,99241.61
2019-03-01T14:39:46.971Z,99247.09
2019-03-01T14:42:13.535Z,99242.95
2019-03-01T14:44:39.866Z,99255.46
2019-03-01T14:47:06.187Z,99267.05
2019-03-01T14:49:32.790Z,99262.76
2019-03-01T14:51:59.136Z,99267.73
2019-03-01T14:54:25.467Z,99268.63
2019-03-01T14:56:52.080Z,99275.08
2019-03-01T14:59:35.107Z,99286.59
2019-03-01T15:02:32.659Z,99267.93
2019-03-01T15:05:01.324Z,99273.66
2019-03-01T15:07:27.929Z,99271.64
2019-03-01T15:09:57.226Z,99279.96
2019-03-01T15:12:23.986Z,99270.92
2019-03-01T15:14:50.849Z,99269.89
2019-03-01T15:17:18.259Z,99276.84
2019-03-01T15:19:45.567Z,99279.87
2019-03-01T15:22:12.936Z,99278.66
2019-03-01T15:24:40.340Z,99283.64
2019-03-01T15:27:06.683Z,99279.51
2019-03-01T15:29:33.151Z,99280.23
2019-03-01T15:31:59.887Z,99289.23
2019-03-01T15:34:26.528Z,99289.35
2019-03-01T15:36:56.112Z,99294.59
2019-03-01T15:39:21.336Z,99292.87
2019-03-01T15:41:47.854Z,99296.89
2019-03-01T15:44:14.229Z,99302.58
2019-03-01T15:46:40.811Z,99300.98
2019-03-01T15:49:11.745Z,99312.98
2019-03-01T15:51:38.204Z,99315.62
2019-03-01T15:54:05.008Z,99321.92
2019-03-01T15:56:43.053Z,99331.20
2019-03-01T15:59:09.602Z,99329.77
2019-03-01T16:01:37.081Z,99327.39
2019-03-01T16:04:03.685Z,99335.75
2019-03-01T16:06:30.290Z,99344.41
2019-03-01T16:08:58.352Z,99343.44
2019-03-01T16:11:24.990Z,99346.37
2019-03-01T16:13:51.314Z,99344.41
2019-03-01T16:16:17.677Z,99351.28
2019-03-01T16:18:44.118Z,99351.53
2019-03-01T16:21:10.525Z,99357.64
2019-03-01T16:23:38.134Z,99359.42
2019-03-01T16:26:04.675Z,99361.56
2019-03-01T16:28:31.378Z,99363.14
2019-03-01T16:30:58.770Z,99365.28
2019-03-01T16:33:26.395Z,99368.72
2019-03-01T16:35:53.957Z,99376.08
2019-03-01T16:38:20.271Z,99389.14
2019-03-01T16:40:46.867Z,99380.84
2019-03-01T16:43:13.172Z,99381.21
2019-03-01T16:45:39.818Z,99387.73
2019-03-01T16:48:06.287Z,99391.89
2019-03-01T16:50:32.591Z,99396.41
2019-03-01T16:53:04.215Z,99400.35
2019-03-01T16:55:29.525Z,99401.41
2019-03-01T16:58:06.248Z,99419.00
2019-03-01T17:00:24.550Z,99387.62
2019-03-01T17:03:02.101Z,99421.97
2019-03-01T17:05:28.424Z,99428.03
2019-03-01T17:07:54.727Z,99440.06
2019-03-01T17:10:21.038Z,99445.41
2019-03-01T17:12:48.822Z,99447.88
2019-03-01T17:15:23.891Z,99452.05
2019-03-01T17:17:50.462Z,99452.47
2019-03-01T17:20:17.026Z,99460.56
2019-03-01T17:22:43.810Z,99463.29
2019-03-01T17:25:14.055Z,99468.42
2019-03-01T17:27:43.435Z,99462.78
2019-03-01T17:30:25.770Z,99471.76
2019-03-01T17:32:52.352Z,99470.92
2019-03-01T17:35:18.957Z,99470.96
2019-03-01T17:37:45.289Z,99476.23
2019-03-01T17:40:17.750Z,99475.66
2019-03-01T17:42:44.334Z,99501.03
2019-03-01T17:45:17.360Z,99518.05
2019-03-01T17:47:45.482Z,99517.33
2019-03-01T17:50:12.718Z,99517.33
2019-03-01T17:52:39.293Z,99524.96
2019-03-01T17:55:09.988Z,99522.95
2019-03-01T17:57:37.594Z,99530.98
2019-03-01T18:00:30.360Z,99532.13
2019-03-01T18:02:57.101Z,99537.01
2019-03-01T18:05:23.839Z,99540.46
2019-03-01T18:07:50.265Z,99544.94
2019-03-01T18:10:16.701Z,99547.45
2019-03-01T18:12:43.298Z,99549.21
2019-03-01T18:15:13.389Z,99552.80
2019-03-01T18:17:39.832Z,99561.38
2019-03-01T18:20:09.731Z,99561.71
2019-03-01T18:22:36.070Z,99577.22
2019-03-01T18:25:05.983Z,99575.05
2019-03-01T18:27:32.326Z,99578.82
2019-03-01T18:29:58.814Z,99584.10
2019-03-01T18:32:26.402Z,99588.75
2019-03-01T18:34:52.909Z,99589.16
2019-03-01T18:37:19.875Z,99596.52
2019-03-01T18:39:46.568Z,99603.03
2019-03-01T18:42:12.927Z,99603.83
2019-03-01T18:44:39.225Z,99609.28
2019-03-01T18:47:05.620Z,99607.06
2019-03-01T18:49:32.206Z,99614.36
2019-03-01T18:51:59.549Z,99614.09
2019-03-01T18:54:25.886Z,99612.08
2019-03-01T18:56:52.223Z,99620.47
2019-03-01T18:59:21.622Z,99623.73
2019-03-01T19:01:47.584Z,99631.27
2019-03-01T19:04:16.710Z,99635.14
2019-03-01T19:06:43.135Z,99632.20
2019-03-01T19:09:12.718Z,99650.31
2019-03-01T19:11:38.855Z,99646.20
2019-03-01T19:14:05.576Z,99647.89
2019-03-01T19:16:31.876Z,99644.44
2019-03-01T19:18:58.248Z,99652.14
2019-03-01T19:21:24.870Z,99652.20
2019-03-01T19:23:51.591Z,99664.88
2019-03-01T19:26:17.940Z,99659.57
2019-03-01T19:28:44.347Z,99659.28
2019-03-01T19:31:10.671Z,99661.77
2019-03-01T19:33:37.836Z,99665.14
2019-03-01T19:36:05.818Z,99662.62
2019-03-01T19:38:32.134Z,99671.75
2019-03-01T19:40:58.717Z,99675.81
2019-03-01T19:43:25.361Z,99676.90
2019-03-01T19:45:52.059Z,99678.39
2019-03-01T19:48:18.644Z,99680.52
2019-03-01T19:50:46.036Z,99690.11
2019-03-01T19:53:12.713Z,99689.50
2019-03-01T19:55:39.302Z,99688.63
2019-03-01T19:58:08.694Z,99683.89
2019-03-01T20:00:34.467Z,99681.16
2019-03-01T20:03:00.952Z,99687.42
2019-03-01T20:05:36.507Z,99691.03
2019-03-01T20:08:03.325Z,99697.36
2019-03-01T20:10:29.884Z,99700.25
2019-03-01T20:12:57.733Z,99700.30
2019-03-01T20:15:26.303Z,99708.88
2019-03-01T20:17:52.737Z,99709.55
2019-03-01T20:20:29.862Z,99666.88
2019-03-01T20:22:55.284Z,99709.89
2019-03-01T20:25:23.232Z,99711.19
2019-03-01T20:27:49.556Z,99710.81
2019-03-01T20:30:28.717Z,99720.70
2019-03-01T20:32:52.195Z,99729.05
2019-03-01T20:35:20.066Z,99723.44
2019-03-01T20:37:46.772Z,99734.70
2019-03-01T20:40:14.225Z,99731.27
2019-03-01T20:42:40.893Z,99727.36
2019-03-01T20:45:25.929Z,99737.06
2019-03-01T20:47:53.537Z,99739.38
2019-03-01T20:50:19.478Z,99745.97
2019-03-01T20:52:45.857Z,99751.18
2019-03-01T20:55:12.881Z,99755.84
2019-03-01T20:57:39.273Z,99759.70
2019-03-01T21:00:15.423Z,99764.37
2019-03-01T21:02:42.055Z,99761.50
2019-03-01T21:05:11.362Z,99770.80
2019-03-01T21:07:38.511Z,99774.73
2019-03-01T21:10:12.598Z,99724.67
2019-03-01T21:12:40.350Z,99772.56
2019-03-01T21:15:10.087Z,99783.27
2019-03-01T21:17:36.440Z,99782.25
2019-03-01T21:20:07.440Z,99785.76
2019-03-01T21:22:36.662Z,99789.12
2019-03-01T21:25:04.614Z,99781.78
2019-03-01T21:27:31.268Z,99787.34
2019-03-01T21:29:57.613Z,99792.84
2019-03-01T21:32:24.201Z,99793.71
2019-03-01T21:34:50.756Z,99791.55
2019-03-01T21:37:17.616Z,99804.96
2019-03-01T21:39:43.942Z,99807.38
2019-03-01T21:42:10.274Z,99809.30
2019-03-01T21:44:36.839Z,99807.02
2019-03-01T21:47:06.925Z,99808.55
2019-03-01T21:49:31.602Z,99810.46
2019-03-01T21:51:57.953Z,99812.53
2019-03-01T21:54:24.585Z,99810.11
2019-03-01T21:56:56.037Z,99816.10
2019-03-01T21:59:20.219Z,99811.91
2019-03-01T22:01:46.565Z,99818.52
2019-03-01T22:04:13.169Z,99821.70
2019-03-01T22:06:39.513Z,99818.90
2019-03-01T22:09:06.267Z,99816.56
2019-03-01T22:11:34.536Z,99817.37
2019-03-01T22:14:01.624Z,99820.53
2019-03-01T22:16:29.200Z,99824.16
2019-03-01T22:18:58.727Z,99828.36
2019-03-01T22:21:23.967Z,99829.83
2019-03-01T22:23:51.447Z,99832.23
2019-03-01T22:26:18.821Z,99835.69
2019-03-01T22:28:45.146Z,99834.21
2019-03-01T22:31:11.938Z,99821.62
2019-03-01T22:33:38.285Z,99822.12
2019-03-01T22:36:04.633Z,99830.45
2019-03-01T22:38:31.714Z,99841.80
2019-03-01T22:41:00.616Z,99845.11
2019-03-01T22:43:27.376Z,99847.22
2019-03-01T22:45:53.733Z,99841.17
2019-03-01T22:48:20.355Z,99842.81
2019-03-01T22:50:47.864Z,99850.16
2019-03-01T22:53:14.768Z,99848.87
2019-03-01T22:55:41.316Z,99843.94
2019-03-01T22:58:07.646Z,99847.53
2019-03-01T23:00:54.596Z,99845.54
2019-03-01T23:03:21.527Z,99847.73
2019-03-01T23:05:47.839Z,99857.94
2019-03-01T23:08:14.517Z,99847.38
2019-03-01T23:10:40.954Z,99854.69
2019-03-01T23:13:07.520Z,99863.61
2019-03-01T23:15:34.315Z,99858.48
2019-03-01T23:18:01.790Z,99855.68
2019-03-01T23:20:29.506Z,99862.38
2019-03-01T23:23:05.824Z,99862.91
2019-03-01T23:25:32.247Z,99863.67
2019-03-01T23:27:58.816Z,99865.43
2019-03-01T23:30:25.791Z,99863.02
2019-03-01T23:32:55.868Z,99865.88
2019-03-01T23:35:21.835Z,99867.80
2019-03-01T23:37:48.584Z,99868.52
2019-03-01T23:40:15.414Z,99870.06
2019-03-01T23:42:42.190Z,99873.98
2019-03-01T23:45:09.709Z,99869.93
2019-03-01T23:47:38.310Z,99878.98
2019-03-01T23:50:08.569Z,99878.37
2019-03-01T23:52:35.157Z,99874.48
2019-03-01T23:55:01.693Z,99867.74
2019-03-01T23:57:28.267Z,99873.61
2019-03-01T23:59:54.586Z,99872.42
